Time;durP1;ratioP1;P1;durP2;ratioP2;P2;SDS_P1;SDS_P2;PMS_P1;PMS_P2;Temp;Humidity;BMP_temperature;BMP_pressure;BME280_temperature;BME280_humidity;BME280_pressure;Samples;Min_cycle;Max_cycle;Signal;HPM_P1;HPM_P2
2021/12/21 00:02:12;;;;;;;;;;;-3.20;99.90;;;;;;4971080;28;19918;-77
2021/12/21 00:04:38;;;;;;;;;;;-3.20;99.90;;;;;;4985363;28;20540;-78
2021/12/21 00:07:05;;;;;;;;;;;-3.30;99.90;;;;;;4970947;28;20061;-77
2021/12/21 00:09:31;;;;;;;;;;;-3.30;99.90;;;;;;4971198;28;19922;-77
2021/12/21 00:11:58;;;;;;;;;;;-3.30;99.90;;;;;;4969918;28;20329;-76
2021/12/21 00:14:55;;;;;;;;;;;-3.30;99.90;;;;;;4971121;28;20005;-78
2021/12/21 00:20:22;;;;;;;;;;;-3.40;99.90;;;;;;4979937;28;19922;-77
2021/12/21 00:25:18;;;;;;;;;;;-3.40;99.90;;;;;;4966500;28;19914;-78
2021/12/21 00:27:45;;;;;;;;;;;-3.40;99.90;;;;;;4992085;28;19921;-77
2021/12/21 00:30:12;;;;;;;;;;;-3.40;99.90;;;;;;4972962;28;19941;-78
2021/12/21 00:32:37;;;;;;;;;;;-3.40;99.90;;;;;;4979566;28;19918;-77
2021/12/21 00:35:03;;;;;;;;;;;-3.50;99.90;;;;;;4975541;28;19918;-77
2021/12/21 00:37:29;;;;;;;;;;;-3.50;99.90;;;;;;4976915;28;19924;-77
2021/12/21 00:39:55;;;;;;;;;;;-3.50;99.90;;;;;;4998075;28;20386;-77
2021/12/21 00:42:21;;;;;;;;;;;-3.50;99.90;;;;;;4982023;28;19919;-77
2021/12/21 00:44:46;;;;;;;;;;;-3.50;99.90;;;;;;4985290;28;19981;-77
2021/12/21 00:47:14;;;;;;;;;;;-3.50;99.90;;;;;;4959958;28;19914;-76
2021/12/21 00:49:44;;;;;;;;;;;-3.60;99.90;;;;;;4957780;28;19918;-77
2021/12/21 00:52:10;;;;;;;;;;;-3.60;99.90;;;;;;4977067;28;20017;-76
2021/12/21 00:54:36;;;;;;;;;;;-3.60;99.90;;;;;;4966935;28;20013;-76
2021/12/21 00:57:04;;;;;;;;;;;-3.60;99.90;;;;;;4954353;28;19925;-77
2021/12/21 00:59:30;;;;;;;;;;;-3.60;99.90;;;;;;4986559;28;19918;-76
2021/12/21 01:01:56;;;;;;;;;;;-3.60;99.90;;;;;;4991975;28;20006;-77
2021/12/21 01:04:27;;;;;;;;;;;-3.60;99.90;;;;;;4964702;28;20465;-77
2021/12/21 01:07:09;;;;;;;;;;;-3.60;99.90;;;;;;4957846;28;19918;-76
2021/12/21 01:12:05;;;;;;;;;;;-3.60;99.90;;;;;;4969661;28;19957;-77
2021/12/21 01:17:30;;;;;;;;;;;-3.70;99.90;;;;;;4965802;28;19958;-78
2021/12/21 01:20:09;;;;;;;;;;;-3.70;99.90;;;;;;4984569;28;19926;-76
2021/12/21 01:25:52;;;;;;;;;;;-3.80;99.90;;;;;;4985218;28;20048;-77
2021/12/21 01:33:24;;;;;;;;;;;-3.80;99.90;;;;;;4980969;28;19918;-77
2021/12/21 01:35:51;;;;;;;;;;;-3.80;99.90;;;;;;4965562;28;19988;-76
2021/12/21 01:41:00;;;;;;;;;;;-3.80;99.90;;;;;;4984636;28;20025;-77
2021/12/21 01:43:34;;;;;;;;;;;-3.90;99.90;;;;;;4979038;28;20013;-77
2021/12/21 01:51:28;;;;;;;;;;;-3.90;99.90;;;;;;4966140;28;19915;-77
2021/12/21 01:53:54;;;;;;;;;;;-3.90;99.90;;;;;;4966590;28;19914;-76
2021/12/21 01:56:21;;;;;;;;;;;-4.00;99.90;;;;;;4969852;28;19934;-78
2021/12/21 01:58:46;;;;;;;;;;;-4.00;99.90;;;;;;4951613;28;19929;-76
2021/12/21 02:01:14;;;;;;;;;;;-4.00;99.90;;;;;;4968830;28;19918;-76
2021/12/21 02:03:41;;;;;;;;;;;-4.00;99.90;;;;;;4972312;28;19922;-78
2021/12/21 02:06:07;;;;;;;;;;;-4.00;99.90;;;;;;4957103;28;20439;-77
2021/12/21 02:08:32;;;;;;;;;;;-4.00;99.90;;;;;;4988498;28;19922;-76
2021/12/21 02:11:03;;;;;;;;;;;-4.00;99.90;;;;;;4969926;28;19923;-77
2021/12/21 02:13:32;;;;;;;;;;;-4.00;99.90;;;;;;4985776;28;19957;-77
2021/12/21 02:15:58;;;;;;;;;;;-4.10;99.90;;;;;;4972105;28;19915;-77
2021/12/21 02:21:41;;;;;;;;;;;-4.10;99.90;;;;;;5000730;28;20329;-77
2021/12/21 02:23:39;;;;;;;;;;;-4.10;99.90;;;;;;4978895;28;20013;-77
2021/12/21 02:26:19;;;;;;;;;;;-4.20;99.90;;;;;;4983273;28;19933;-76
2021/12/21 02:29:10;;;;;;;;;;;-4.20;99.90;;;;;;4958939;28;19922;-77
2021/12/21 02:31:34;;;;;;;;;;;-4.20;99.90;;;;;;4984347;28;20352;-76
2021/12/21 02:33:59;;;;;;;;;;;-4.20;99.90;;;;;;4976280;28;20005;-76
2021/12/21 02:36:25;;;;;;;;;;;-4.20;99.90;;;;;;4987209;28;20270;-76
2021/12/21 02:38:51;;;;;;;;;;;-4.20;99.90;;;;;;4954282;28;19930;-77
2021/12/21 02:41:16;;;;;;;;;;;-4.20;99.90;;;;;;4974374;28;19914;-77
2021/12/21 02:43:42;;;;;;;;;;;-4.20;99.90;;;;;;4973448;28;19914;-76
2021/12/21 02:46:08;;;;;;;;;;;-4.20;99.90;;;;;;4973322;28;20715;-76
2021/12/21 02:48:33;;;;;;;;;;;-4.20;99.90;;;;;;4988221;28;19926;-78
2021/12/21 02:51:00;;;;;;;;;;;-4.20;99.90;;;;;;4974173;28;20005;-77
2021/12/21 02:53:25;;;;;;;;;;;-4.20;99.90;;;;;;4986866;28;19964;-78
2021/12/21 02:55:51;;;;;;;;;;;-4.20;99.90;;;;;;4954474;28;20380;-78
2021/12/21 02:58:16;;;;;;;;;;;-4.20;99.90;;;;;;4967774;28;19922;-78
2021/12/21 03:00:43;;;;;;;;;;;-4.20;99.90;;;;;;4979262;28;20376;-78
2021/12/21 03:03:13;;;;;;;;;;;-4.20;99.90;;;;;;4975643;28;19925;-78
2021/12/21 03:05:40;;;;;;;;;;;-4.20;99.90;;;;;;4970872;28;19925;-78
2021/12/21 03:08:18;;;;;;;;;;;-4.20;99.90;;;;;;4971064;28;20539;-78
2021/12/21 03:14:14;;;;;;;;;;;-4.20;99.90;;;;;;4968151;28;20431;-78
2021/12/21 03:16:14;;;;;;;;;;;-4.20;99.90;;;;;;4962731;28;20334;-78
2021/12/21 03:18:40;;;;;;;;;;;-4.20;99.90;;;;;;4964283;28;20004;-78
2021/12/21 03:21:06;;;;;;;;;;;-4.20;99.90;;;;;;4974346;28;20266;-78
2021/12/21 03:23:31;;;;;;;;;;;-4.20;99.90;;;;;;4962468;28;19915;-78
2021/12/21 03:25:57;;;;;;;;;;;-4.30;99.90;;;;;;4975622;28;19926;-78
2021/12/21 03:28:22;;;;;;;;;;;-4.20;99.90;;;;;;4979864;28;19921;-79
2021/12/21 03:30:48;;;;;;;;;;;-4.30;99.90;;;;;;4974761;28;19985;-78
2021/12/21 03:33:14;;;;;;;;;;;-4.20;99.90;;;;;;4986163;28;20102;-78
2021/12/21 03:35:39;;;;;;;;;;;-4.30;99.90;;;;;;4976662;28;19986;-79
2021/12/21 03:38:05;;;;;;;;;;;-4.20;99.90;;;;;;4981611;28;19961;-78
2021/12/21 03:40:32;;;;;;;;;;;-4.20;99.90;;;;;;4980628;28;20013;-78
2021/12/21 03:42:59;;;;;;;;;;;-4.20;99.90;;;;;;4975038;28;19921;-78
2021/12/21 03:45:25;;;;;;;;;;;-4.30;99.90;;;;;;4980588;28;20296;-77
2021/12/21 03:47:51;;;;;;;;;;;-4.20;99.90;;;;;;4964573;28;19946;-78
2021/12/21 03:50:20;;;;;;;;;;;-4.30;99.90;;;;;;4984756;28;19953;-78
2021/12/21 03:52:45;;;;;;;;;;;-4.30;99.90;;;;;;4976925;28;19914;-78
2021/12/21 03:55:11;;;;;;;;;;;-4.30;99.90;;;;;;4980264;28;19959;-78
2021/12/21 03:57:37;;;;;;;;;;;-4.30;99.90;;;;;;4979662;28;19997;-78
2021/12/21 04:00:08;;;;;;;;;;;-4.40;99.90;;;;;;4982296;28;19925;-78
2021/12/21 04:02:33;;;;;;;;;;;-4.40;99.90;;;;;;4981775;28;19970;-78
2021/12/21 04:04:59;;;;;;;;;;;-4.40;99.90;;;;;;4998281;28;20452;-78
2021/12/21 04:07:25;;;;;;;;;;;-4.40;99.90;;;;;;4961501;28;19925;-78
2021/12/21 04:09:51;;;;;;;;;;;-4.40;99.90;;;;;;4980042;28;19918;-78
2021/12/21 04:12:16;;;;;;;;;;;-4.40;99.90;;;;;;4966901;28;19977;-78
2021/12/21 04:14:42;;;;;;;;;;;-4.40;99.90;;;;;;4951413;28;19922;-78
2021/12/21 04:17:08;;;;;;;;;;;-4.40;99.90;;;;;;4974518;28;20420;-78
2021/12/21 04:19:33;;;;;;;;;;;-4.50;99.90;;;;;;4992474;28;19914;-79
2021/12/21 04:21:59;;;;;;;;;;;-4.50;99.90;;;;;;4941251;28;19922;-78
2021/12/21 04:24:24;;;;;;;;;;;-4.50;99.90;;;;;;4975432;28;20017;-78
2021/12/21 04:26:50;;;;;;;;;;;-4.50;99.90;;;;;;4973201;28;19922;-78
2021/12/21 04:29:16;;;;;;;;;;;-4.60;99.90;;;;;;4985528;28;20001;-78
2021/12/21 04:31:42;;;;;;;;;;;-4.60;99.90;;;;;;4968546;28;19965;-77
2021/12/21 04:34:07;;;;;;;;;;;-4.60;99.90;;;;;;4985496;28;19985;-77
2021/12/21 04:36:33;;;;;;;;;;;-4.60;99.90;;;;;;4971305;28;20064;-78
2021/12/21 04:39:03;;;;;;;;;;;-4.60;99.90;;;;;;4969210;28;19918;-78
2021/12/21 04:41:29;;;;;;;;;;;-4.60;99.90;;;;;;4972477;28;19941;-78
2021/12/21 04:43:59;;;;;;;;;;;-4.70;99.90;;;;;;4969876;28;19918;-78
2021/12/21 04:46:25;;;;;;;;;;;-4.70;99.90;;;;;;4970371;28;19919;-78
2021/12/21 04:48:51;;;;;;;;;;;-4.70;99.90;;;;;;4973302;28;19972;-79
2021/12/21 04:51:17;;;;;;;;;;;-4.70;99.90;;;;;;4967969;28;20413;-78
2021/12/21 04:53:42;;;;;;;;;;;-4.70;99.90;;;;;;4968079;28;19920;-78
2021/12/21 04:56:08;;;;;;;;;;;-4.70;99.90;;;;;;4981076;28;20388;-78
2021/12/21 04:58:34;;;;;;;;;;;-4.80;99.90;;;;;;4969613;28;19914;-78
2021/12/21 05:00:59;;;;;;;;;;;-4.80;99.90;;;;;;4969141;28;19918;-78
2021/12/21 05:03:25;;;;;;;;;;;-4.80;99.90;;;;;;4970155;28;19925;-78
2021/12/21 05:05:51;;;;;;;;;;;-4.80;99.90;;;;;;4969850;28;20296;-78
2021/12/21 05:08:24;;;;;;;;;;;-4.70;99.90;;;;;;4966668;28;20693;-79
2021/12/21 05:10:53;;;;;;;;;;;-4.70;99.90;;;;;;4977558;28;19964;-77
2021/12/21 05:13:20;;;;;;;;;;;-4.70;99.90;;;;;;4979072;28;19914;-78
2021/12/21 05:15:46;;;;;;;;;;;-4.70;99.90;;;;;;4972981;28;20385;-77
2021/12/21 05:18:12;;;;;;;;;;;-4.60;99.90;;;;;;4974721;28;19921;-78
2021/12/21 05:20:38;;;;;;;;;;;-4.60;99.90;;;;;;4982657;28;19962;-79
2021/12/21 05:23:04;;;;;;;;;;;-4.60;99.90;;;;;;4970812;28;20408;-78
2021/12/21 05:25:30;;;;;;;;;;;-4.50;99.90;;;;;;4978782;28;19922;-78
2021/12/21 05:27:56;;;;;;;;;;;-4.50;99.90;;;;;;4978769;28;19925;-78
2021/12/21 05:30:26;;;;;;;;;;;-4.50;99.90;;;;;;4964376;28;20009;-78
2021/12/21 05:32:52;;;;;;;;;;;-4.50;99.90;;;;;;4984460;28;19952;-78
2021/12/21 05:35:18;;;;;;;;;;;-4.50;99.90;;;;;;4970666;28;20006;-77
2021/12/21 05:37:44;;;;;;;;;;;-4.40;99.90;;;;;;4973691;28;19920;-78
2021/12/21 05:40:14;;;;;;;;;;;-4.50;99.90;;;;;;4970866;28;19921;-78
2021/12/21 05:42:41;;;;;;;;;;;-4.50;99.90;;;;;;4969560;28;19926;-77
2021/12/21 05:45:07;;;;;;;;;;;-4.50;99.90;;;;;;4982352;28;19918;-78
2021/12/21 05:47:33;;;;;;;;;;;-4.50;99.90;;;;;;4975594;28;19925;-78
2021/12/21 05:49:59;;;;;;;;;;;-4.60;99.90;;;;;;4982497;28;19922;-79
2021/12/21 05:52:24;;;;;;;;;;;-4.60;99.90;;;;;;4994713;28;19929;-78
2021/12/21 05:54:50;;;;;;;;;;;-4.50;99.90;;;;;;4970161;28;20013;-78
2021/12/21 05:57:16;;;;;;;;;;;-4.50;99.90;;;;;;4973462;28;19965;-78
2021/12/21 05:59:42;;;;;;;;;;;-4.50;99.90;;;;;;4971966;28;19961;-78
2021/12/21 06:02:07;;;;;;;;;;;-4.50;99.90;;;;;;4986388;28;19922;-78
2021/12/21 06:04:33;;;;;;;;;;;-4.50;99.90;;;;;;4973528;28;19921;-78
2021/12/21 06:06:58;;;;;;;;;;;-4.60;99.90;;;;;;4981347;28;19914;-77
2021/12/21 06:09:25;;;;;;;;;;;-4.60;99.90;;;;;;4980363;28;19922;-78
2021/12/21 06:12:05;;;;;;;;;;;-4.70;99.90;;;;;;4985375;28;19923;-78
2021/12/21 06:22:54;;;;;;;;;;;-4.80;99.90;;;;;;4965571;28;19953;-77
2021/12/21 06:25:56;;;;;;;;;;;-4.90;99.90;;;;;;4988807;28;20420;-78
2021/12/21 06:28:11;;;;;;;;;;;-5.00;99.90;;;;;;4983264;28;19966;-77
2021/12/21 06:30:39;;;;;;;;;;;-5.00;99.90;;;;;;4981044;28;19934;-77
2021/12/21 06:33:05;;;;;;;;;;;-5.10;99.90;;;;;;4965991;28;19918;-78
2021/12/21 06:35:31;;;;;;;;;;;-5.10;99.90;;;;;;4970177;28;19918;-77
2021/12/21 06:37:57;;;;;;;;;;;-5.10;99.90;;;;;;4955173;28;20567;-77
2021/12/21 06:40:23;;;;;;;;;;;-5.10;99.90;;;;;;4973170;28;19914;-77
2021/12/21 06:42:50;;;;;;;;;;;-5.10;99.90;;;;;;4973279;28;19934;-77
2021/12/21 06:53:30;;;;;;;;;;;-5.00;99.90;;;;;;4976250;28;19921;-77
2021/12/21 06:55:55;;;;;;;;;;;-5.00;99.90;;;;;;4974311;28;19910;-77
2021/12/21 06:58:21;;;;;;;;;;;-5.00;99.90;;;;;;4974531;28;19925;-78
2021/12/21 07:00:49;;;;;;;;;;;-5.00;99.90;;;;;;4966181;28;19923;-77
2021/12/21 07:03:14;;;;;;;;;;;-5.10;99.90;;;;;;4983968;28;20376;-77
2021/12/21 07:05:40;;;;;;;;;;;-5.10;99.90;;;;;;4972588;28;19918;-77
2021/12/21 07:08:08;;;;;;;;;;;-5.10;99.90;;;;;;4959549;28;19918;-78
2021/12/21 07:10:34;;;;;;;;;;;-5.10;99.90;;;;;;4997672;28;19957;-77
2021/12/21 07:18:29;;;;;;;;;;;-5.10;99.90;;;;;;4975613;28;20009;-77
2021/12/21 07:20:56;;;;;;;;;;;-5.10;99.90;;;;;;4984319;28;19966;-77
2021/12/21 07:23:22;;;;;;;;;;;-5.10;99.90;;;;;;4983213;28;19973;-78
2021/12/21 07:25:48;;;;;;;;;;;-5.10;99.90;;;;;;4970276;28;19941;-76
2021/12/21 07:28:14;;;;;;;;;;;-5.00;99.90;;;;;;4969742;28;19918;-77
2021/12/21 07:30:39;;;;;;;;;;;-4.90;99.90;;;;;;4975861;28;19922;-77
2021/12/21 07:33:05;;;;;;;;;;;-4.80;99.90;;;;;;4979129;28;19926;-78
2021/12/21 07:35:30;;;;;;;;;;;-4.80;99.90;;;;;;4981439;28;19918;-78
2021/12/21 07:37:56;;;;;;;;;;;-4.80;99.90;;;;;;4965487;28;19947;-77
2021/12/21 07:40:22;;;;;;;;;;;-4.80;99.90;;;;;;4968818;28;19918;-78
2021/12/21 07:42:47;;;;;;;;;;;-4.80;99.90;;;;;;4974543;28;19918;-78
2021/12/21 07:45:13;;;;;;;;;;;-4.90;99.90;;;;;;4985721;28;19914;-77
2021/12/21 07:47:38;;;;;;;;;;;-4.90;99.90;;;;;;4972305;28;20049;-78
2021/12/21 07:50:04;;;;;;;;;;;-4.80;99.90;;;;;;4973081;28;20612;-78
2021/12/21 07:52:30;;;;;;;;;;;-4.80;99.90;;;;;;4935148;28;19918;-78
2021/12/21 07:54:56;;;;;;;;;;;-4.80;99.90;;;;;;4968413;28;19914;-77
2021/12/21 07:57:21;;;;;;;;;;;-4.80;99.90;;;;;;4976299;28;20013;-78
2021/12/21 07:59:47;;;;;;;;;;;-4.80;99.90;;;;;;4988348;28;19918;-78
2021/12/21 08:02:13;;;;;;;;;;;-4.80;99.90;;;;;;4971468;28;19918;-77
2021/12/21 08:04:41;;;;;;;;;;;-4.80;99.90;;;;;;4964967;28;19914;-77
2021/12/21 08:07:11;;;;;;;;;;;-4.70;99.90;;;;;;4988213;28;19936;-78
2021/12/21 08:09:41;;;;;;;;;;;-4.70;99.90;;;;;;4986644;28;19985;-77
2021/12/21 08:12:13;;;;;;;;;;;-4.70;99.90;;;;;;4969596;28;19977;-77
2021/12/21 08:14:38;;;;;;;;;;;-4.70;99.90;;;;;;4966103;28;19926;-77
2021/12/21 08:17:04;;;;;;;;;;;-4.60;99.90;;;;;;4960733;28;19914;-78
2021/12/21 08:19:30;;;;;;;;;;;-4.60;99.90;;;;;;4965404;28;19956;-78
2021/12/21 08:21:56;;;;;;;;;;;-4.60;99.90;;;;;;4969550;28;20021;-78
2021/12/21 08:24:21;;;;;;;;;;;-4.60;99.90;;;;;;4976388;28;19914;-77
2021/12/21 08:26:47;;;;;;;;;;;-4.50;99.90;;;;;;4982151;28;20393;-77
2021/12/21 08:29:12;;;;;;;;;;;-4.50;99.90;;;;;;4989630;28;19930;-78
2021/12/21 08:31:38;;;;;;;;;;;-4.50;99.90;;;;;;4975119;28;20007;-78
2021/12/21 08:34:04;;;;;;;;;;;-4.40;99.90;;;;;;4983005;28;19946;-78
2021/12/21 08:36:29;;;;;;;;;;;-4.40;99.90;;;;;;4969711;28;19922;-79
2021/12/21 08:38:55;;;;;;;;;;;-4.40;99.90;;;;;;4969118;28;20068;-79
2021/12/21 08:41:22;;;;;;;;;;;-4.40;99.90;;;;;;4968184;28;19918;-78
2021/12/21 08:43:48;;;;;;;;;;;-4.30;99.90;;;;;;4963350;28;19928;-77
2021/12/21 08:46:14;;;;;;;;;;;-4.20;99.90;;;;;;4968349;28;20288;-77
2021/12/21 08:48:39;;;;;;;;;;;-4.20;99.90;;;;;;4966959;28;19918;-77
2021/12/21 08:51:05;;;;;;;;;;;-4.10;99.90;;;;;;4982147;28;19950;-77
2021/12/21 08:53:31;;;;;;;;;;;-4.00;99.90;;;;;;4968790;28;19914;-78
2021/12/21 08:55:57;;;;;;;;;;;-4.00;99.90;;;;;;4982491;28;19992;-77
2021/12/21 08:58:23;;;;;;;;;;;-3.90;99.90;;;;;;4960404;28;19918;-78
2021/12/21 09:00:50;;;;;;;;;;;-3.90;99.90;;;;;;4981235;28;19917;-77
2021/12/21 09:03:16;;;;;;;;;;;-3.80;99.90;;;;;;4965209;28;19922;-77
2021/12/21 09:05:42;;;;;;;;;;;-3.80;99.90;;;;;;4946964;28;20389;-78
2021/12/21 09:08:10;;;;;;;;;;;-3.80;99.90;;;;;;4968613;28;20001;-77
2021/12/21 09:10:36;;;;;;;;;;;-3.70;99.90;;;;;;4983383;28;20317;-77
2021/12/21 09:13:02;;;;;;;;;;;-3.70;99.90;;;;;;4972551;28;20346;-78
2021/12/21 09:15:28;;;;;;;;;;;-3.70;99.90;;;;;;4972280;28;19949;-77
2021/12/21 09:17:54;;;;;;;;;;;-3.60;99.90;;;;;;4986249;28;19918;-79
2021/12/21 09:20:22;;;;;;;;;;;-3.60;99.90;;;;;;4989521;28;19914;-78
2021/12/21 09:22:49;;;;;;;;;;;-3.50;99.90;;;;;;4988457;28;19914;-78
2021/12/21 09:25:15;;;;;;;;;;;-3.50;99.90;;;;;;4970451;28;19937;-78
2021/12/21 09:27:41;;;;;;;;;;;-3.50;99.90;;;;;;4979891;28;19910;-79
2021/12/21 09:30:08;;;;;;;;;;;-3.50;99.90;;;;;;4973276;28;19918;-78
2021/12/21 09:32:33;;;;;;;;;;;-3.50;99.90;;;;;;4988365;28;19946;-78
2021/12/21 09:34:59;;;;;;;;;;;-3.40;99.90;;;;;;4970511;28;19921;-78
2021/12/21 09:37:26;;;;;;;;;;;-3.40;99.90;;;;;;4974998;28;19914;-79
2021/12/21 09:39:52;;;;;;;;;;;-3.30;99.90;;;;;;4986483;28;20029;-79
2021/12/21 09:42:20;;;;;;;;;;;-3.10;99.90;;;;;;4977106;28;20312;-79
2021/12/21 09:44:47;;;;;;;;;;;-3.00;99.90;;;;;;4981631;28;20289;-78
2021/12/21 09:47:12;;;;;;;;;;;-3.00;99.90;;;;;;4970859;28;19918;-79
2021/12/21 09:49:38;;;;;;;;;;;-2.90;99.90;;;;;;4985032;28;20092;-78
2021/12/21 09:52:05;;;;;;;;;;;-2.80;99.90;;;;;;4986125;28;19921;-79
2021/12/21 09:54:32;;;;;;;;;;;-2.70;99.90;;;;;;4968004;28;19914;-79
2021/12/21 09:56:57;;;;;;;;;;;-2.60;99.90;;;;;;4996651;28;19945;-80
2021/12/21 09:59:25;;;;;;;;;;;-2.50;99.90;;;;;;4942975;28;19988;-78
2021/12/21 10:01:51;;;;;;;;;;;-2.40;99.90;;;;;;4997008;28;20577;-78
2021/12/21 10:04:18;;;;;;;;;;;-2.40;99.90;;;;;;4964902;28;20562;-78
2021/12/21 10:06:51;;;;;;;;;;;-2.30;99.90;;;;;;4973319;28;19914;-79
2021/12/21 10:09:21;;;;;;;;;;;-2.30;99.90;;;;;;4979760;28;19983;-79
2021/12/21 10:11:48;;;;;;;;;;;-2.20;99.90;;;;;;4955266;28;19918;-80
2021/12/21 10:14:15;;;;;;;;;;;-2.20;99.90;;;;;;4937036;28;19910;-79
2021/12/21 10:16:41;;;;;;;;;;;-2.10;99.90;;;;;;4981297;28;19913;-80
2021/12/21 10:19:07;;;;;;;;;;;-2.10;99.90;;;;;;4974085;28;20012;-79
2021/12/21 10:21:43;;;;;;;;;;;-2.10;99.90;;;;;;4988540;28;19914;-79
2021/12/21 10:24:08;;;;;;;;;;;-2.10;99.90;;;;;;4972963;28;19941;-79
2021/12/21 10:26:34;;;;;;;;;;;-2.00;99.90;;;;;;4979223;28;19926;-79
2021/12/21 10:29:01;;;;;;;;;;;-2.00;99.90;;;;;;4940928;28;19922;-81
2021/12/21 10:31:30;;;;;;;;;;;-2.00;99.90;;;;;;5003927;28;19926;-79
2021/12/21 10:33:57;;;;;;;;;;;-1.90;99.90;;;;;;4975927;28;20005;-79
2021/12/21 10:36:25;;;;;;;;;;;-1.90;99.90;;;;;;4988835;28;19919;-79
2021/12/21 10:38:54;;;;;;;;;;;-1.90;99.90;;;;;;4975339;28;19918;-79
2021/12/21 10:41:40;;;;;;;;;;;-1.80;99.90;;;;;;4976679;28;19918;-79
2021/12/21 10:44:08;;;;;;;;;;;-1.80;99.90;;;;;;4975246;28;19914;-80
2021/12/21 10:46:35;;;;;;;;;;;-1.80;99.90;;;;;;4965813;28;20289;-79
2021/12/21 10:49:11;;;;;;;;;;;-1.80;99.90;;;;;;4982482;28;20610;-80
2021/12/21 10:51:37;;;;;;;;;;;-1.80;99.90;;;;;;4981855;28;19997;-80
2021/12/21 10:54:03;;;;;;;;;;;-1.80;99.90;;;;;;4989273;28;20490;-80
2021/12/21 10:56:29;;;;;;;;;;;-1.80;99.90;;;;;;4990174;28;20013;-80
2021/12/21 10:58:54;;;;;;;;;;;-1.80;99.90;;;;;;4971890;28;19922;-79
2021/12/21 11:01:25;;;;;;;;;;;-1.80;99.90;;;;;;4957380;28;19921;-79
2021/12/21 11:03:53;;;;;;;;;;;-1.80;99.90;;;;;;4986540;28;19926;-79
2021/12/21 11:06:22;;;;;;;;;;;-1.70;99.90;;;;;;4972716;28;20384;-79
2021/12/21 11:08:49;;;;;;;;;;;-1.70;99.90;;;;;;4945150;28;19945;-79
2021/12/21 11:11:29;;;;;;;;;;;-1.70;99.90;;;;;;4980440;28;19949;-80
2021/12/21 11:14:13;;;;;;;;;;;-1.70;99.90;;;;;;4960165;28;19917;-80
2021/12/21 11:16:41;;;;;;;;;;;-1.60;99.90;;;;;;4966781;28;20251;-79
2021/12/21 11:19:07;;;;;;;;;;;-1.50;99.90;;;;;;4972222;28;19949;-80
2021/12/21 11:21:33;;;;;;;;;;;-1.50;99.90;;;;;;4989205;28;19918;-80
2021/12/21 11:24:01;;;;;;;;;;;-1.50;99.90;;;;;;4970332;28;20439;-79
2021/12/21 11:26:27;;;;;;;;;;;-1.50;99.90;;;;;;4952813;28;19922;-79
2021/12/21 11:28:54;;;;;;;;;;;-1.40;99.90;;;;;;4953832;28;19914;-80
2021/12/21 11:31:20;;;;;;;;;;;-1.40;99.90;;;;;;4956026;28;19985;-80
2021/12/21 11:33:48;;;;;;;;;;;-1.40;99.90;;;;;;4974360;28;20009;-80
2021/12/21 11:38:58;;;;;;;;;;;-1.40;99.90;;;;;;4970537;28;19914;-79
2021/12/21 11:41:24;;;;;;;;;;;-1.40;99.90;;;;;;4977418;28;19920;-79
2021/12/21 11:44:01;;;;;;;;;;;-1.40;99.90;;;;;;4982285;28;19936;-79
2021/12/21 11:46:36;;;;;;;;;;;-1.40;99.90;;;;;;4950456;28;19953;-80
2021/12/21 11:49:09;;;;;;;;;;;-1.50;99.90;;;;;;4973030;28;19928;-80
2021/12/21 11:51:35;;;;;;;;;;;-1.50;99.90;;;;;;4973310;28;19936;-79
2021/12/21 11:54:00;;;;;;;;;;;-1.50;99.90;;;;;;4971765;28;20433;-80
2021/12/21 11:56:27;;;;;;;;;;;-1.50;99.90;;;;;;4988870;28;19915;-80
2021/12/21 11:58:54;;;;;;;;;;;-1.50;99.90;;;;;;4976432;28;19918;-80
2021/12/21 12:01:29;;;;;;;;;;;-1.50;99.90;;;;;;4976926;28;19914;-80
2021/12/21 12:03:56;;;;;;;;;;;-1.50;99.90;;;;;;4969533;28;19918;-80
2021/12/21 12:06:22;;;;;;;;;;;-1.40;99.90;;;;;;4974915;28;19918;-80
2021/12/21 12:08:50;;;;;;;;;;;-1.30;99.90;;;;;;4971706;28;19924;-80
2021/12/21 12:11:26;;;;;;;;;;;-1.10;99.90;;;;;;4979257;28;20412;-80
2021/12/21 12:14:07;;;;;;;;;;;-1.00;99.90;;;;;;4982930;28;19919;-80
2021/12/21 12:16:50;;;;;;;;;;;-1.00;99.90;;;;;;4987167;28;19918;-80
2021/12/21 12:19:17;;;;;;;;;;;-0.90;99.90;;;;;;4971344;28;19980;-80
2021/12/21 12:21:53;;;;;;;;;;;-0.90;99.90;;;;;;4969258;28;19957;-80
2021/12/21 12:24:19;;;;;;;;;;;-0.90;99.90;;;;;;4987685;28;19918;-80
2021/12/21 12:26:54;;;;;;;;;;;-1.00;99.90;;;;;;4991760;28;19922;-80
2021/12/21 12:29:20;;;;;;;;;;;-1.00;99.90;;;;;;4980286;28;19989;-80
2021/12/21 12:31:47;;;;;;;;;;;-1.10;99.90;;;;;;4988469;28;20017;-80
2021/12/21 12:34:22;;;;;;;;;;;-1.10;99.90;;;;;;4984102;28;19910;-81
2021/12/21 12:36:51;;;;;;;;;;;-1.10;99.90;;;;;;4970417;28;19926;-81
2021/12/21 12:39:27;;;;;;;;;;;-1.10;99.90;;;;;;4970312;28;19918;-81
2021/12/21 12:41:53;;;;;;;;;;;-1.10;99.90;;;;;;4954538;28;20000;-82
2021/12/21 12:44:19;;;;;;;;;;;-1.10;99.90;;;;;;4978391;28;19942;-81
2021/12/21 12:46:52;;;;;;;;;;;-1.20;99.90;;;;;;4976447;28;19986;-82
2021/12/21 12:49:26;;;;;;;;;;;-1.10;99.90;;;;;;4978140;28;19938;-81
2021/12/21 12:52:01;;;;;;;;;;;-1.20;99.90;;;;;;4983881;28;19914;-81
2021/12/21 12:54:27;;;;;;;;;;;-1.20;99.90;;;;;;4968965;28;19921;-81
2021/12/21 12:56:53;;;;;;;;;;;-1.20;99.90;;;;;;4980769;28;20315;-81
2021/12/21 12:59:18;;;;;;;;;;;-1.30;99.90;;;;;;4966616;28;19918;-81
2021/12/21 13:01:46;;;;;;;;;;;-1.30;99.90;;;;;;4991544;28;19919;-81
2021/12/21 13:04:13;;;;;;;;;;;-1.40;99.90;;;;;;4983796;28;20359;-81
2021/12/21 13:06:40;;;;;;;;;;;-1.40;99.90;;;;;;4962899;28;19922;-81
2021/12/21 13:09:08;;;;;;;;;;;-1.40;99.90;;;;;;4970310;28;19918;-80
2021/12/21 13:11:35;;;;;;;;;;;-1.40;99.90;;;;;;4984857;28;20021;-81
2021/12/21 13:14:01;;;;;;;;;;;-1.40;99.90;;;;;;4982939;28;19981;-81
2021/12/21 13:16:28;;;;;;;;;;;-1.50;99.90;;;;;;4968534;28;19923;-81
2021/12/21 13:18:58;;;;;;;;;;;-1.40;99.90;;;;;;4967268;28;19914;-82
2021/12/21 13:21:28;;;;;;;;;;;-1.40;99.90;;;;;;4958819;28;19950;-81
2021/12/21 13:24:03;;;;;;;;;;;-1.40;99.90;;;;;;4981455;28;19918;-82
2021/12/21 13:26:55;;;;;;;;;;;-1.40;99.90;;;;;;4984708;28;20081;-84
2021/12/21 13:29:22;;;;;;;;;;;-1.40;99.90;;;;;;4943285;28;19922;-82
2021/12/21 13:31:50;;;;;;;;;;;-1.40;99.90;;;;;;4952892;28;19929;-82
2021/12/21 13:34:16;;;;;;;;;;;-1.40;99.90;;;;;;4962847;28;20352;-82
2021/12/21 13:36:47;;;;;;;;;;;-1.40;99.90;;;;;;4964068;28;19921;-83
2021/12/21 13:39:19;;;;;;;;;;;-1.40;99.90;;;;;;4969110;28;19918;-83
2021/12/21 13:41:49;;;;;;;;;;;-1.40;99.90;;;;;;4966541;28;19958;-82
2021/12/21 13:44:25;;;;;;;;;;;-1.40;99.90;;;;;;4966165;28;19919;-82
2021/12/21 13:46:51;;;;;;;;;;;-1.30;99.90;;;;;;4981646;28;20361;-82
2021/12/21 13:49:17;;;;;;;;;;;-1.40;99.90;;;;;;4982957;28;20401;-82
2021/12/21 13:51:47;;;;;;;;;;;-1.40;99.90;;;;;;4965274;28;19925;-82
2021/12/21 13:54:15;;;;;;;;;;;-1.40;99.90;;;;;;4963779;28;19918;-81
2021/12/21 13:56:40;;;;;;;;;;;-1.30;99.90;;;;;;4962167;28;19914;-81
2021/12/21 13:59:09;;;;;;;;;;;-1.20;99.90;;;;;;4970925;28;19918;-81
2021/12/21 14:01:36;;;;;;;;;;;-1.10;99.90;;;;;;4972196;28;20399;-82
2021/12/21 14:04:04;;;;;;;;;;;-0.90;99.90;;;;;;4940659;28;20013;-81
2021/12/21 14:06:30;;;;;;;;;;;-1.00;99.90;;;;;;4971727;28;20002;-82
2021/12/21 14:08:59;;;;;;;;;;;-1.00;99.90;;;;;;4971834;28;19953;-82
2021/12/21 14:11:29;;;;;;;;;;;-1.00;99.90;;;;;;4985677;28;19914;-82
2021/12/21 14:13:56;;;;;;;;;;;-0.80;99.90;;;;;;4967555;28;19917;-82
2021/12/21 14:16:26;;;;;;;;;;;-0.80;99.90;;;;;;4949143;28;20556;-82
2021/12/21 14:18:53;;;;;;;;;;;-0.80;99.90;;;;;;4929853;28;19946;-82
2021/12/21 14:21:26;;;;;;;;;;;-0.80;99.90;;;;;;4981138;28;19925;-81
2021/12/21 14:23:54;;;;;;;;;;;-0.70;99.90;;;;;;4968662;28;20380;-82
2021/12/21 14:26:19;;;;;;;;;;;-0.80;99.90;;;;;;4967527;28;19918;-82
2021/12/21 14:28:51;;;;;;;;;;;-0.80;99.90;;;;;;4988093;28;20296;-82
2021/12/21 14:31:23;;;;;;;;;;;-0.90;99.90;;;;;;4988019;28;20050;-82
2021/12/21 14:33:50;;;;;;;;;;;-0.90;99.90;;;;;;4985049;28;19914;-82
2021/12/21 14:36:17;;;;;;;;;;;-1.00;99.90;;;;;;4968054;28;20384;-82
2021/12/21 14:38:56;;;;;;;;;;;-1.00;99.90;;;;;;4984148;28;20091;-82
2021/12/21 14:41:24;;;;;;;;;;;-1.00;99.90;;;;;;4956848;28;19914;-82
2021/12/21 14:44:04;;;;;;;;;;;-1.10;99.90;;;;;;4964146;28;19986;-81
2021/12/21 14:46:30;;;;;;;;;;;-1.10;99.90;;;;;;4966023;28;19915;-82
2021/12/21 14:49:04;;;;;;;;;;;-1.10;99.90;;;;;;4973853;28;19921;-81
2021/12/21 14:51:37;;;;;;;;;;;-1.10;99.90;;;;;;4952985;29;19918;-82
2021/12/21 14:54:07;;;;;;;;;;;-1.20;99.90;;;;;;4987294;28;20305;-82
2021/12/21 14:56:35;;;;;;;;;;;-1.20;99.90;;;;;;4966244;28;20443;-82
2021/12/21 14:59:02;;;;;;;;;;;-1.20;99.90;;;;;;4970310;28;20340;-82
2021/12/21 15:01:36;;;;;;;;;;;-1.30;99.90;;;;;;4940080;28;19926;-82
2021/12/21 15:04:21;;;;;;;;;;;-1.30;99.90;;;;;;4969198;28;20008;-82
2021/12/21 15:06:47;;;;;;;;;;;-1.40;99.90;;;;;;4984615;28;19960;-82
2021/12/21 15:09:12;;;;;;;;;;;-1.40;99.90;;;;;;4935448;29;19929;-82
2021/12/21 15:11:45;;;;;;;;;;;-1.50;99.90;;;;;;4961996;28;19914;-82
2021/12/21 15:14:11;;;;;;;;;;;-1.50;99.90;;;;;;4960981;28;19914;-82
2021/12/21 15:16:36;;;;;;;;;;;-1.60;99.90;;;;;;4987834;28;20038;-81
2021/12/21 15:19:02;;;;;;;;;;;-1.60;99.90;;;;;;4937941;28;19918;-82